createdAt,value
2023-02-15T00:00:44.564Z,1034.32
2023-02-15T00:01:44.839Z,1034.35
2023-02-15T00:02:44.950Z,1034.31
2023-02-15T00:03:45.099Z,1034.29
2023-02-15T00:04:45.296Z,1034.31
2023-02-15T00:05:45.466Z,1034.24
2023-02-15T00:06:45.662Z,1034.22
2023-02-15T00:07:45.809Z,1034.22
2023-02-15T00:08:45.992Z,1034.22
2023-02-15T00:09:46.179Z,1034.22
2023-02-15T00:10:46.366Z,1034.19
2023-02-15T00:11:46.571Z,1034.18
2023-02-15T00:12:46.721Z,1034.16
2023-02-15T00:13:46.901Z,1034.12
2023-02-15T00:14:47.080Z,1034.12
2023-02-15T00:15:47.259Z,1034.07
2023-02-15T00:16:47.553Z,1034.08
2023-02-15T00:17:47.639Z,1034.08
2023-02-15T00:18:47.788Z,1034.06
2023-02-15T00:19:47.967Z,1034.08
2023-02-15T00:20:48.158Z,1034.11
2023-02-15T00:21:48.332Z,1034.04
2023-02-15T00:22:48.498Z,1034.08
2023-02-15T00:23:48.650Z,1034.07
2023-02-15T00:24:48.840Z,1034.12
2023-02-15T00:25:49.030Z,1034.11
2023-02-15T00:26:49.235Z,1034.13
2023-02-15T00:27:49.376Z,1034.12
2023-02-15T00:28:49.555Z,1034.13
2023-02-15T00:29:49.858Z,1034.11
2023-02-15T00:30:50.012Z,1034.09
2023-02-15T00:31:50.167Z,1034.07
2023-02-15T00:32:50.269Z,1034.06
2023-02-15T00:33:50.454Z,1034.05
2023-02-15T00:34:50.640Z,1034.10
2023-02-15T00:35:50.834Z,1034.03
2023-02-15T00:36:51.045Z,1034.03
2023-02-15T00:37:51.185Z,1034.08
2023-02-15T00:38:51.367Z,1034.07
2023-02-15T00:39:51.559Z,1034.07
2023-02-15T00:40:51.735Z,1034.01
2023-02-15T00:41:51.935Z,1034.06
2023-02-15T00:42:52.090Z,1034.07
2023-02-15T00:43:52.278Z,1034.02
2023-02-15T00:44:52.455Z,1034.05
2023-02-15T00:45:52.680Z,1034.01
2023-02-15T00:46:52.827Z,1034.03
2023-02-15T00:47:52.980Z,1034.04
2023-02-15T00:48:53.166Z,1034.02
2023-02-15T00:49:53.351Z,1034.00
2023-02-15T00:50:53.521Z,1033.97
2023-02-15T00:51:53.724Z,1033.98
2023-02-15T00:52:53.871Z,1033.98
2023-02-15T00:53:54.054Z,1034.01
2023-02-15T00:54:54.244Z,1033.99
2023-02-15T00:55:54.423Z,1034.00
2023-02-15T00:56:54.621Z,1034.03
2023-02-15T00:57:54.780Z,1034.01
2023-02-15T00:58:54.951Z,1034.01
2023-02-15T00:59:55.132Z,1034.01
2023-02-15T01:00:55.346Z,1033.99
2023-02-15T01:01:55.492Z,1034.04
2023-02-15T01:02:55.643Z,1034.03
2023-02-15T01:03:55.822Z,1034.04
2023-02-15T01:04:56.017Z,1033.99
2023-02-15T01:05:56.195Z,1033.98
2023-02-15T01:06:56.393Z,1034.00
2023-02-15T01:07:56.543Z,1033.98
2023-02-15T01:08:56.727Z,1033.96
2023-02-15T01:09:56.916Z,1033.96
2023-02-15T01:10:57.093Z,1033.94
2023-02-15T01:11:57.293Z,1033.93
2023-02-15T01:12:57.443Z,1033.90
2023-02-15T01:13:57.626Z,1033.86
2023-02-15T01:14:57.803Z,1033.84
2023-02-15T01:15:58.015Z,1033.84
2023-02-15T01:16:58.184Z,1033.80
2023-02-15T01:17:58.341Z,1033.83
2023-02-15T01:18:58.525Z,1033.83
2023-02-15T01:19:58.707Z,1033.80
2023-02-15T01:20:58.874Z,1033.79
2023-02-15T01:21:59.081Z,1033.78
2023-02-15T01:22:59.221Z,1033.78
2023-02-15T01:23:59.457Z,1033.80
2023-02-15T01:24:59.597Z,1033.74
2023-02-15T01:26:00.156Z,1033.77
2023-02-15T01:26:59.977Z,1033.75
2023-02-15T01:28:00.159Z,1033.75
2023-02-15T01:29:00.338Z,1033.72
2023-02-15T01:30:00.557Z,1033.73
2023-02-15T01:31:00.743Z,1033.71
2023-02-15T01:32:01.029Z,1033.73
2023-02-15T01:33:01.063Z,1033.72
2023-02-15T01:34:01.225Z,1033.68
2023-02-15T01:35:01.407Z,1033.69
2023-02-15T01:36:01.914Z,1033.67
2023-02-15T01:37:01.774Z,1033.66
2023-02-15T01:38:01.932Z,1033.63
2023-02-15T01:39:02.108Z,1033.61
2023-02-15T01:40:02.298Z,1033.59
2023-02-15T01:41:02.481Z,1033.56
2023-02-15T01:42:02.679Z,1033.55
2023-02-15T01:43:02.821Z,1033.56
2023-02-15T01:44:03.137Z,1033.52
2023-02-15T01:45:03.193Z,1033.54
2023-02-15T01:46:03.764Z,1033.52
2023-02-15T01:47:03.542Z,1033.51
2023-02-15T01:48:03.714Z,1033.46
2023-02-15T01:49:03.871Z,1033.46
2023-02-15T01:50:04.059Z,1033.43
2023-02-15T01:51:04.445Z,1033.41
2023-02-15T01:52:04.399Z,1033.43
2023-02-15T01:53:04.543Z,1033.40
2023-02-15T01:54:04.727Z,1033.40
2023-02-15T01:55:07.172Z,1033.35
2023-02-15T01:56:05.086Z,1033.30
2023-02-15T01:57:05.244Z,1033.30
2023-02-15T01:58:05.402Z,1033.26
2023-02-15T01:59:05.582Z,1033.28
2023-02-15T02:00:05.771Z,1033.21
2023-02-15T02:01:05.954Z,1033.22
2023-02-15T02:02:06.133Z,1033.21
2023-02-15T02:03:06.308Z,1033.20
2023-02-15T02:04:06.454Z,1033.19
2023-02-15T02:05:06.639Z,1033.18
2023-02-15T02:06:06.823Z,1033.15
2023-02-15T02:07:07.020Z,1033.17
2023-02-15T02:08:07.170Z,1033.18
2023-02-15T02:09:07.342Z,1033.14
2023-02-15T02:10:07.532Z,1033.15
2023-02-15T02:11:07.713Z,1033.09
2023-02-15T02:12:07.909Z,1033.13
2023-02-15T02:13:08.056Z,1033.07
2023-02-15T02:14:08.237Z,1033.11
2023-02-15T02:15:08.426Z,1033.05
2023-02-15T02:16:08.660Z,1033.07
2023-02-15T02:17:08.772Z,1033.07
2023-02-15T02:18:08.920Z,1033.05
2023-02-15T02:19:09.103Z,1033.06
2023-02-15T02:20:09.291Z,1033.11
2023-02-15T02:21:09.473Z,1033.00
2023-02-15T02:22:09.676Z,1033.05
2023-02-15T02:23:09.818Z,1033.07
2023-02-15T02:24:09.998Z,1033.06
2023-02-15T02:25:10.180Z,1033.05
2023-02-15T02:26:10.362Z,1033.05
2023-02-15T02:27:10.563Z,1033.01
2023-02-15T02:28:10.704Z,1033.03
2023-02-15T02:29:10.893Z,1033.00
2023-02-15T02:30:11.136Z,1032.95
2023-02-15T02:31:11.253Z,1033.01
2023-02-15T02:32:11.452Z,1032.93
2023-02-15T02:33:11.608Z,1032.95
2023-02-15T02:34:11.779Z,1032.93
2023-02-15T02:35:11.958Z,1032.91
2023-02-15T02:36:12.138Z,1032.94
2023-02-15T02:37:12.358Z,1032.93
2023-02-15T02:38:12.500Z,1032.96
2023-02-15T02:39:12.686Z,1032.91
2023-02-15T02:40:12.867Z,1032.98
2023-02-15T02:41:13.047Z,1032.88
2023-02-15T02:42:13.254Z,1032.88
2023-02-15T02:43:13.397Z,1032.87
2023-02-15T02:44:13.581Z,1032.87
2023-02-15T02:45:13.766Z,1032.83
2023-02-15T02:46:14.023Z,1032.82
2023-02-15T02:47:14.136Z,1032.81
2023-02-15T02:48:14.289Z,1032.84
2023-02-15T02:49:14.496Z,1032.86
2023-02-15T02:50:14.651Z,1032.84
2023-02-15T02:51:14.830Z,1032.83
2023-02-15T02:52:15.006Z,1032.87
2023-02-15T02:53:15.196Z,1032.82
2023-02-15T02:54:15.407Z,1032.84
2023-02-15T02:55:15.566Z,1032.82
2023-02-15T02:56:15.744Z,1032.82
2023-02-15T02:57:15.933Z,1032.78
2023-02-15T02:58:16.117Z,1032.76
2023-02-15T02:59:16.322Z,1032.73
2023-02-15T03:00:16.465Z,1032.75
2023-02-15T03:01:16.651Z,1032.71
2023-02-15T03:02:16.824Z,1032.73
2023-02-15T03:03:17.037Z,1032.72
2023-02-15T03:04:17.187Z,1032.72
2023-02-15T03:05:17.374Z,1032.70
2023-02-15T03:06:17.556Z,1032.68
2023-02-15T03:07:17.842Z,1032.69
2023-02-15T03:08:17.925Z,1032.64
2023-02-15T03:09:18.135Z,1032.65
2023-02-15T03:10:18.294Z,1032.63
2023-02-15T03:11:18.445Z,1032.61
2023-02-15T03:12:18.637Z,1032.61
2023-02-15T03:13:18.836Z,1032.60
2023-02-15T03:14:19.027Z,1032.57
2023-02-15T03:15:19.177Z,1032.55
2023-02-15T03:16:19.426Z,1032.56
2023-02-15T03:17:19.536Z,1032.53
2023-02-15T03:18:19.721Z,1032.56
2023-02-15T03:19:19.926Z,1032.52
2023-02-15T03:20:20.074Z,1032.54
2023-02-15T03:21:20.257Z,1032.51
2023-02-15T03:22:20.434Z,1032.50
2023-02-15T03:23:20.618Z,1032.50
2023-02-15T03:24:20.817Z,1032.51
2023-02-15T03:25:20.990Z,1032.50
2023-02-15T03:26:21.175Z,1032.47
2023-02-15T03:27:21.325Z,1032.49
2023-02-15T03:28:21.506Z,1032.44
2023-02-15T03:29:21.695Z,1032.45
2023-02-15T03:30:21.940Z,1032.41
2023-02-15T03:31:22.151Z,1032.41
2023-02-15T03:32:22.262Z,1032.44
2023-02-15T03:33:22.418Z,1032.41
2023-02-15T03:34:22.586Z,1032.44
2023-02-15T03:35:22.744Z,1032.46
2023-02-15T03:36:22.915Z,1032.43
2023-02-15T03:37:23.108Z,1032.46
2023-02-15T03:38:23.292Z,1032.46
2023-02-15T03:39:23.502Z,1032.48
2023-02-15T03:40:23.665Z,1032.45
2023-02-15T03:41:23.836Z,1032.44
2023-02-15T03:42:23.990Z,1032.41
2023-02-15T03:43:24.185Z,1032.39
2023-02-15T03:44:24.331Z,1032.45
2023-02-15T03:45:24.516Z,1032.45
2023-02-15T03:46:24.750Z,1032.42
2023-02-15T03:47:24.874Z,1032.41
2023-02-15T03:48:25.046Z,1032.45
2023-02-15T03:49:25.252Z,1032.42
2023-02-15T03:50:25.412Z,1032.39
2023-02-15T03:51:25.606Z,1032.40
2023-02-15T03:52:25.753Z,1032.43
2023-02-15T03:53:25.944Z,1032.39
2023-02-15T03:54:26.122Z,1032.35
2023-02-15T03:55:26.306Z,1032.35
2023-02-15T03:56:26.501Z,1032.34
2023-02-15T03:57:26.658Z,1032.37
2023-02-15T03:58:26.843Z,1032.37
2023-02-15T03:59:27.038Z,1032.42
2023-02-15T04:00:27.210Z,1032.39
2023-02-15T04:01:27.457Z,1032.39
2023-02-15T04:02:27.550Z,1032.36
2023-02-15T04:03:27.741Z,1032.36
2023-02-15T04:04:27.948Z,1032.34
2023-02-15T04:05:28.093Z,1032.35
2023-02-15T04:06:28.270Z,1032.35
2023-02-15T04:07:28.480Z,1032.33
2023-02-15T04:08:28.628Z,1032.34
2023-02-15T04:09:28.810Z,1032.35
2023-02-15T04:10:29.008Z,1032.35
2023-02-15T04:11:29.166Z,1032.37
2023-02-15T04:12:29.362Z,1032.33
2023-02-15T04:13:29.515Z,1032.38
2023-02-15T04:14:29.717Z,1032.34
2023-02-15T04:15:29.868Z,1032.36
2023-02-15T04:16:31.278Z,1032.33
2023-02-15T04:17:30.258Z,1032.32
2023-02-15T04:18:30.398Z,1032.35
2023-02-15T04:19:30.587Z,1032.30
2023-02-15T04:20:30.796Z,1032.30
2023-02-15T04:21:30.946Z,1032.26
2023-02-15T04:22:31.131Z,1032.28
2023-02-15T04:23:31.315Z,1032.29
2023-02-15T04:24:31.492Z,1032.26
2023-02-15T04:25:31.701Z,1032.25
2023-02-15T04:26:31.832Z,1032.26
2023-02-15T04:27:32.013Z,1032.28
2023-02-15T04:28:32.191Z,1032.26
2023-02-15T04:29:32.383Z,1032.24
2023-02-15T04:30:32.597Z,1032.22
2023-02-15T04:31:32.938Z,1032.21
2023-02-15T04:32:32.930Z,1032.21
2023-02-15T04:33:33.130Z,1032.22
2023-02-15T04:34:33.272Z,1032.22
2023-02-15T04:35:33.460Z,1032.23
2023-02-15T04:36:33.638Z,1032.21
2023-02-15T04:37:33.847Z,1032.19
2023-02-15T04:38:33.989Z,1032.19
2023-02-15T04:39:34.174Z,1032.16
2023-02-15T04:40:34.366Z,1032.14
2023-02-15T04:41:34.537Z,1032.05
2023-02-15T04:42:34.740Z,1032.03
2023-02-15T04:43:34.888Z,1032.02
2023-02-15T04:44:35.087Z,1032.01
2023-02-15T04:45:35.273Z,1031.98
2023-02-15T04:46:35.439Z,1031.94
2023-02-15T04:47:35.604Z,1031.94
2023-02-15T04:48:35.757Z,1031.96
2023-02-15T04:49:35.954Z,1031.94
2023-02-15T04:50:36.106Z,1031.92
2023-02-15T04:51:36.275Z,1031.92
2023-02-15T04:52:36.472Z,1031.96
2023-02-15T04:53:36.635Z,1031.90
2023-02-15T04:54:36.776Z,1031.88
2023-02-15T04:55:36.979Z,1031.84
2023-02-15T04:56:37.175Z,1031.85
2023-02-15T04:57:37.297Z,1031.86
2023-02-15T04:58:37.477Z,1031.80
2023-02-15T04:59:37.646Z,1031.79
2023-02-15T05:00:37.796Z,1031.78
2023-02-15T05:01:37.996Z,1031.74
2023-02-15T05:02:38.164Z,1031.74
2023-02-15T05:03:38.378Z,1031.70
2023-02-15T05:04:38.567Z,1031.73
2023-02-15T05:05:38.704Z,1031.67
2023-02-15T05:06:38.876Z,1031.67
2023-02-15T05:07:39.043Z,1031.69
2023-02-15T05:08:39.246Z,1031.68
2023-02-15T05:09:39.376Z,1031.65
2023-02-15T05:10:39.522Z,1031.62
2023-02-15T05:11:39.715Z,1031.64
2023-02-15T05:12:39.884Z,1031.63
2023-02-15T05:13:40.074Z,1031.61
2023-02-15T05:14:40.256Z,1031.63
2023-02-15T05:15:40.414Z,1031.65
2023-02-15T05:16:40.598Z,1031.63
2023-02-15T05:17:40.752Z,1031.67
2023-02-15T05:18:40.906Z,1031.67
2023-02-15T05:19:41.096Z,1031.67
2023-02-15T05:20:41.248Z,1031.71
2023-02-15T05:21:41.458Z,1031.69
2023-02-15T05:22:41.602Z,1031.70
2023-02-15T05:23:41.807Z,1031.70
2023-02-15T05:24:41.990Z,1031.72
2023-02-15T05:25:42.161Z,1031.67
2023-02-15T05:26:42.316Z,1031.66
2023-02-15T05:27:42.474Z,1031.67
2023-02-15T05:28:42.654Z,1031.67
2023-02-15T05:29:42.844Z,1031.60
2023-02-15T05:30:43.162Z,1031.59
2023-02-15T05:31:43.465Z,1031.63
2023-02-15T05:32:43.468Z,1031.61
2023-02-15T05:33:43.547Z,1031.52
2023-02-15T05:34:43.706Z,1031.55
2023-02-15T05:35:43.895Z,1031.57
2023-02-15T05:36:44.055Z,1031.52
2023-02-15T05:37:44.242Z,1031.52
2023-02-15T05:38:44.395Z,1031.52
2023-02-15T05:39:44.565Z,1031.51
2023-02-15T05:40:44.725Z,1031.50
2023-02-15T05:41:44.889Z,1031.55
2023-02-15T05:42:45.095Z,1031.54
2023-02-15T05:43:45.208Z,1031.53
2023-02-15T05:44:45.386Z,1031.53
2023-02-15T05:45:45.540Z,1031.53
2023-02-15T05:46:45.696Z,1031.54
2023-02-15T05:47:45.894Z,1031.49
2023-02-15T05:48:46.075Z,1031.51
2023-02-15T05:49:46.237Z,1031.47
2023-02-15T05:50:46.395Z,1031.50
2023-02-15T05:51:46.555Z,1031.48
2023-02-15T05:52:46.747Z,1031.49
2023-02-15T05:53:46.927Z,1031.53
2023-02-15T05:54:47.087Z,1031.55
2023-02-15T05:55:47.254Z,1031.62
2023-02-15T05:56:47.435Z,1031.56
2023-02-15T05:57:47.615Z,1031.52
2023-02-15T05:58:47.784Z,1031.54
2023-02-15T05:59:47.976Z,1031.53
2023-02-15T06:00:48.148Z,1031.52
2023-02-15T06:01:48.304Z,1031.50
2023-02-15T06:02:48.530Z,1031.50
2023-02-15T06:03:48.735Z,1031.45
2023-02-15T06:04:48.826Z,1031.47
2023-02-15T06:05:48.972Z,1031.46
2023-02-15T06:06:49.146Z,1031.44
2023-02-15T06:07:49.327Z,1031.49
2023-02-15T06:08:49.534Z,1031.46
2023-02-15T06:09:49.702Z,1031.41
2023-02-15T06:10:49.855Z,1031.44
2023-02-15T06:11:50.056Z,1031.41
2023-02-15T06:12:50.232Z,1031.46
2023-02-15T06:13:50.400Z,1031.42
2023-02-15T06:14:50.591Z,1031.48
2023-02-15T06:15:50.780Z,1031.45
2023-02-15T06:16:50.915Z,1031.47
2023-02-15T06:17:51.102Z,1031.51
2023-02-15T06:18:53.629Z,1031.44
2023-02-15T06:19:51.470Z,1031.41
2023-02-15T06:20:51.687Z,1031.42
2023-02-15T06:21:51.814Z,1031.42
2023-02-15T06:22:51.968Z,1031.41
2023-02-15T06:23:52.190Z,1031.39
2023-02-15T06:24:52.323Z,1031.42
2023-02-15T06:25:52.530Z,1031.43
2023-02-15T06:26:52.673Z,1031.42
2023-02-15T06:27:52.901Z,1031.44
2023-02-15T06:28:53.041Z,1031.45
2023-02-15T06:29:53.252Z,1031.42
2023-02-15T06:30:53.465Z,1031.37
2023-02-15T06:31:53.694Z,1031.38
2023-02-15T06:32:53.749Z,1031.40
2023-02-15T06:33:53.908Z,1031.38
2023-02-15T06:34:54.093Z,1031.34
2023-02-15T06:35:54.281Z,1031.33
2023-02-15T06:36:54.469Z,1031.29
2023-02-15T06:37:54.670Z,1031.31
2023-02-15T06:38:54.828Z,1031.36
2023-02-15T06:39:55.028Z,1031.34
2023-02-15T06:40:55.175Z,1031.37
2023-02-15T06:41:55.358Z,1031.34
2023-02-15T06:42:55.563Z,1031.39
2023-02-15T06:43:55.718Z,1031.40
2023-02-15T06:44:55.871Z,1031.43
2023-02-15T06:45:56.075Z,1031.40
2023-02-15T06:46:56.215Z,1031.43
2023-02-15T06:47:56.429Z,1031.45
2023-02-15T06:48:56.600Z,1031.40
2023-02-15T06:49:56.824Z,1031.43
2023-02-15T06:50:56.962Z,1031.36
2023-02-15T06:51:57.175Z,1031.40
2023-02-15T06:52:57.358Z,1031.35
2023-02-15T06:53:57.468Z,1031.38
2023-02-15T06:54:57.659Z,1031.35
2023-02-15T06:55:57.836Z,1031.33
2023-02-15T06:56:58.014Z,1031.36
2023-02-15T06:57:58.230Z,1031.38
2023-02-15T06:58:58.357Z,1031.33
2023-02-15T06:59:58.523Z,1031.37
2023-02-15T07:00:58.708Z,1031.34
2023-02-15T07:01:58.870Z,1031.27
2023-02-15T07:02:59.075Z,1031.30
2023-02-15T07:03:59.223Z,1031.28
2023-02-15T07:04:59.464Z,1031.26
2023-02-15T07:05:59.930Z,1031.32
2023-02-15T07:06:59.728Z,1031.29
2023-02-15T07:08:00.012Z,1031.30
2023-02-15T07:09:00.099Z,1031.31
2023-02-15T07:10:00.264Z,1031.34
2023-02-15T07:11:00.419Z,1031.34
2023-02-15T07:12:00.614Z,1031.35
2023-02-15T07:13:00.836Z,1031.33
2023-02-15T07:14:00.968Z,1031.34
2023-02-15T07:15:01.178Z,1031.34
2023-02-15T07:16:01.717Z,1031.34
2023-02-15T07:17:01.469Z,1031.38
2023-02-15T07:18:01.680Z,1031.39
2023-02-15T07:19:01.833Z,1031.35
2023-02-15T07:20:01.966Z,1031.37
2023-02-15T07:21:02.155Z,1031.37
2023-02-15T07:22:02.336Z,1031.32
2023-02-15T07:23:02.594Z,1031.36
2023-02-15T07:24:02.730Z,1031.34
2023-02-15T07:25:02.865Z,1031.34
2023-02-15T07:26:03.352Z,1031.33
2023-02-15T07:27:03.275Z,1031.29
2023-02-15T07:28:03.433Z,1031.26
2023-02-15T07:29:03.563Z,1031.22
2023-02-15T07:30:03.774Z,1031.17
2023-02-15T07:31:03.944Z,1031.11
2023-02-15T07:32:04.176Z,1031.10
2023-02-15T07:33:05.514Z,1031.09
2023-02-15T07:34:04.451Z,1031.12
2023-02-15T07:35:04.662Z,1031.11
2023-02-15T07:36:04.944Z,1031.13
2023-02-15T07:37:04.962Z,1031.12
2023-02-15T07:38:05.150Z,1031.10
2023-02-15T07:39:05.321Z,1031.15
2023-02-15T07:40:05.498Z,1031.08
2023-02-15T07:41:05.731Z,1031.06
2023-02-15T07:42:05.833Z,1031.08
2023-02-15T07:43:06.045Z,1031.02
2023-02-15T07:44:06.213Z,1031.05
2023-02-15T07:45:06.381Z,1031.06
2023-02-15T07:46:06.616Z,1031.02
2023-02-15T07:47:06.751Z,1031.00
2023-02-15T07:48:06.920Z,1031.00
2023-02-15T07:49:07.121Z,1030.99
2023-02-15T07:50:07.275Z,1030.96
2023-02-15T07:51:07.421Z,1030.94
2023-02-15T07:52:07.601Z,1030.95
2023-02-15T07:53:07.797Z,1030.90
2023-02-15T07:54:07.959Z,1030.92
2023-02-15T07:55:08.141Z,1030.89
2023-02-15T07:56:08.332Z,1030.91
2023-02-15T07:57:08.499Z,1030.91
2023-02-15T07:58:08.696Z,1030.90
2023-02-15T07:59:08.851Z,1030.86
2023-02-15T08:00:09.031Z,1030.87
2023-02-15T08:01:09.212Z,1030.86
2023-02-15T08:02:09.382Z,1030.87
2023-02-15T08:03:09.662Z,1030.85
2023-02-15T08:04:09.710Z,1030.85
2023-02-15T08:05:09.889Z,1030.89
2023-02-15T08:06:10.060Z,1030.88
2023-02-15T08:07:10.239Z,1030.84
2023-02-15T08:08:10.418Z,1030.81
2023-02-15T08:09:10.594Z,1030.84
2023-02-15T08:10:10.827Z,1030.81
2023-02-15T08:11:10.950Z,1030.78
2023-02-15T08:12:11.148Z,1030.77
2023-02-15T08:13:11.329Z,1030.77
2023-02-15T08:14:11.484Z,1030.78
2023-02-15T08:15:11.682Z,1030.74
2023-02-15T08:16:14.187Z,1030.75
2023-02-15T08:17:12.037Z,1030.71
2023-02-15T08:18:12.225Z,1030.67
2023-02-15T08:19:12.389Z,1030.66
2023-02-15T08:20:12.552Z,1030.65
2023-02-15T08:21:12.731Z,1030.65
2023-02-15T08:22:12.915Z,1030.64
2023-02-15T08:23:13.112Z,1030.62
2023-02-15T08:24:13.280Z,1030.63
2023-02-15T08:25:13.450Z,1030.64
2023-02-15T08:26:13.617Z,1030.63
2023-02-15T08:27:13.823Z,1030.64
2023-02-15T08:28:13.972Z,1030.64
2023-02-15T08:29:14.134Z,1030.62
2023-02-15T08:30:14.356Z,1030.67
2023-02-15T08:31:14.613Z,1030.67
2023-02-15T08:32:14.704Z,1030.61
2023-02-15T08:33:14.855Z,1030.60
2023-02-15T08:34:15.038Z,1030.58
2023-02-15T08:35:15.198Z,1030.58
2023-02-15T08:36:15.341Z,1030.57
2023-02-15T08:37:15.513Z,1030.52
2023-02-15T08:38:15.715Z,1030.50
2023-02-15T08:39:15.897Z,1030.52
2023-02-15T08:40:16.073Z,1030.45
2023-02-15T08:41:16.235Z,1030.41
2023-02-15T08:42:16.405Z,1030.40
2023-02-15T08:43:16.601Z,1030.39
2023-02-15T08:44:16.763Z,1030.39
2023-02-15T08:45:16.914Z,1030.32
2023-02-15T08:46:17.179Z,1030.30
2023-02-15T08:47:17.272Z,1030.30
2023-02-15T08:48:17.454Z,1030.30
2023-02-15T08:49:17.619Z,1030.32
2023-02-15T08:50:17.793Z,1030.31
2023-02-15T08:51:17.983Z,1030.31
2023-02-15T08:52:18.149Z,1030.35
2023-02-15T08:53:18.347Z,1030.36
2023-02-15T08:54:18.509Z,1030.34
2023-02-15T08:55:18.679Z,1030.34
2023-02-15T08:56:18.850Z,1030.32
2023-02-15T08:57:19.041Z,1030.32
2023-02-15T08:58:19.233Z,1030.33
2023-02-15T08:59:19.413Z,1030.29
2023-02-15T09:00:19.598Z,1030.29
2023-02-15T09:01:19.791Z,1030.30
2023-02-15T09:02:19.964Z,1030.31
2023-02-15T09:03:20.118Z,1030.31
2023-02-15T09:04:20.283Z,1030.31
2023-02-15T09:05:20.497Z,1030.32
2023-02-15T09:06:20.627Z,1030.30
2023-02-15T09:07:20.802Z,1030.31
2023-02-15T09:08:20.988Z,1030.27
2023-02-15T09:09:21.164Z,1030.27
2023-02-15T09:10:21.329Z,1030.24
2023-02-15T09:11:21.500Z,1030.25
2023-02-15T09:12:21.677Z,1030.24
2023-02-15T09:13:21.880Z,1030.22
2023-02-15T09:14:22.036Z,1030.21
2023-02-15T09:15:22.217Z,1030.20
2023-02-15T09:16:22.416Z,1030.21
2023-02-15T09:17:22.565Z,1030.18
2023-02-15T09:18:22.799Z,1030.20
2023-02-15T09:19:22.913Z,1030.19
2023-02-15T09:20:23.087Z,1030.15
2023-02-15T09:21:23.267Z,1030.15
2023-02-15T09:22:23.435Z,1030.12
2023-02-15T09:23:27.236Z,1030.13
2023-02-15T09:24:23.799Z,1030.11
2023-02-15T09:25:23.975Z,1030.12
2023-02-15T09:26:24.176Z,1030.15
2023-02-15T09:27:24.365Z,1030.09
2023-02-15T09:28:24.521Z,1030.10
2023-02-15T09:29:24.681Z,1030.07
2023-02-15T09:30:25.041Z,1030.11
2023-02-15T09:31:25.101Z,1030.12
2023-02-15T09:32:25.226Z,1030.18
2023-02-15T09:33:25.434Z,1030.16
2023-02-15T09:34:25.585Z,1030.17
2023-02-15T09:35:25.780Z,1030.19
2023-02-15T09:36:25.916Z,1030.16
2023-02-15T09:37:26.096Z,1030.20
2023-02-15T09:38:26.274Z,1030.21
2023-02-15T09:39:26.429Z,1030.16
2023-02-15T09:40:26.613Z,1030.19
2023-02-15T09:41:26.811Z,1030.17
2023-02-15T09:42:26.937Z,1030.18
2023-02-15T09:43:27.139Z,1030.15
2023-02-15T09:44:27.305Z,1030.12
2023-02-15T09:45:27.490Z,1030.10
2023-02-15T09:46:27.651Z,1030.02
2023-02-15T09:47:27.836Z,1030.08
2023-02-15T09:48:28.039Z,1030.05
2023-02-15T09:49:28.178Z,1030.05
2023-02-15T09:50:28.353Z,1030.03
2023-02-15T09:51:28.531Z,1030.04
2023-02-15T09:52:28.733Z,1030.11
2023-02-15T09:53:28.919Z,1030.09
2023-02-15T09:54:29.065Z,1030.10
2023-02-15T09:55:29.235Z,1030.07
2023-02-15T09:56:29.383Z,1030.08
2023-02-15T09:57:29.578Z,1030.06
2023-02-15T09:58:29.757Z,1030.09
2023-02-15T09:59:29.924Z,1030.09
2023-02-15T10:00:30.098Z,1030.03
2023-02-15T10:01:30.289Z,1030.07
2023-02-15T10:02:30.441Z,1030.05
2023-02-15T10:03:30.632Z,1030.05
2023-02-15T10:04:30.857Z,1030.04
2023-02-15T10:05:30.970Z,1030.05
2023-02-15T10:06:31.135Z,1030.04
2023-02-15T10:07:31.315Z,1030.01
2023-02-15T10:08:31.484Z,1030.01
2023-02-15T10:09:31.662Z,1030.02
2023-02-15T10:10:31.832Z,1029.98
2023-02-15T10:11:32.057Z,1030.00
2023-02-15T10:12:32.176Z,1029.97
2023-02-15T10:13:32.376Z,1029.98
2023-02-15T10:14:32.529Z,1030.02
2023-02-15T10:15:32.722Z,1030.00
2023-02-15T10:16:32.966Z,1029.97
2023-02-15T10:17:33.053Z,1029.95
2023-02-15T10:18:33.265Z,1029.93
2023-02-15T10:19:33.416Z,1029.96
2023-02-15T10:20:33.559Z,1029.96
2023-02-15T10:21:33.751Z,1029.96
2023-02-15T10:22:33.917Z,1029.91
2023-02-15T10:23:34.115Z,1029.94
2023-02-15T10:24:40.564Z,1029.95
2023-02-15T10:25:35.423Z,1029.92
2023-02-15T10:26:34.596Z,1029.93
2023-02-15T10:27:34.789Z,1029.93
2023-02-15T10:28:35.154Z,1029.92
2023-02-15T10:29:35.110Z,1029.89
2023-02-15T10:30:35.464Z,1029.89
2023-02-15T10:31:35.558Z,1029.93
2023-02-15T10:32:35.641Z,1029.95
2023-02-15T10:33:35.829Z,1029.92
2023-02-15T10:34:35.991Z,1029.87
2023-02-15T10:35:36.204Z,1029.86
2023-02-15T10:36:36.371Z,1029.88
2023-02-15T10:37:36.520Z,1029.86
2023-02-15T10:38:36.752Z,1029.79
2023-02-15T10:39:36.859Z,1029.80
2023-02-15T10:40:37.029Z,1029.76
2023-02-15T10:41:37.209Z,1029.69
2023-02-15T10:42:37.380Z,1029.70
2023-02-15T10:43:37.585Z,1029.72
2023-02-15T10:44:37.736Z,1029.70
2023-02-15T10:45:37.928Z,1029.66
2023-02-15T10:46:38.175Z,1029.66
2023-02-15T10:47:38.275Z,1029.64
2023-02-15T10:48:38.454Z,1029.63
2023-02-15T10:49:38.647Z,1029.60
2023-02-15T10:50:38.808Z,1029.60
2023-02-15T10:51:38.984Z,1029.60
2023-02-15T10:52:39.169Z,1029.60
2023-02-15T10:53:39.337Z,1029.60
2023-02-15T10:54:39.534Z,1029.56
2023-02-15T10:55:39.707Z,1029.55
2023-02-15T10:56:39.870Z,1029.52
2023-02-15T10:57:40.050Z,1029.52
2023-02-15T10:58:40.209Z,1029.46
2023-02-15T10:59:40.398Z,1029.51
2023-02-15T11:00:40.568Z,1029.48
2023-02-15T11:01:40.776Z,1029.45
2023-02-15T11:02:40.927Z,1029.44
2023-02-15T11:03:41.088Z,1029.42
2023-02-15T11:04:41.348Z,1029.33
2023-02-15T11:05:41.432Z,1029.33
2023-02-15T11:06:41.619Z,1029.29
2023-02-15T11:07:41.802Z,1029.26
2023-02-15T11:08:41.997Z,1029.24
2023-02-15T11:09:42.146Z,1029.25
2023-02-15T11:10:42.318Z,1029.20
2023-02-15T11:11:42.477Z,1029.24
2023-02-15T11:12:42.664Z,1029.22
2023-02-15T11:13:42.923Z,1029.22
2023-02-15T11:14:43.038Z,1029.21
2023-02-15T11:15:43.205Z,1029.25
2023-02-15T11:16:43.360Z,1029.22
2023-02-15T11:17:43.539Z,1029.19
2023-02-15T11:18:43.705Z,1029.14
2023-02-15T11:19:43.886Z,1029.19
2023-02-15T11:20:44.077Z,1029.19
2023-02-15T11:21:44.223Z,1029.20
2023-02-15T11:22:44.420Z,1029.15
2023-02-15T11:23:44.586Z,1029.20
2023-02-15T11:24:44.787Z,1029.17
2023-02-15T11:25:44.927Z,1029.19
2023-02-15T11:26:45.094Z,1029.18
2023-02-15T11:27:47.582Z,1029.19
2023-02-15T11:28:45.434Z,1029.13
2023-02-15T11:29:45.646Z,1029.08
2023-02-15T11:30:45.964Z,1029.11
2023-02-15T11:31:46.018Z,1029.09
2023-02-15T11:32:46.148Z,1029.04
2023-02-15T11:33:46.298Z,1029.03
2023-02-15T11:34:46.486Z,1029.07
2023-02-15T11:35:46.655Z,1029.05
2023-02-15T11:36:46.846Z,1029.02
2023-02-15T11:37:47.006Z,1028.96
2023-02-15T11:38:47.257Z,1028.96
2023-02-15T11:39:47.366Z,1028.96
2023-02-15T11:40:47.525Z,1029.00
2023-02-15T11:41:47.708Z,1028.99
2023-02-15T11:42:47.886Z,1028.99
2023-02-15T11:43:48.129Z,1028.96
2023-02-15T11:44:48.274Z,1028.96
2023-02-15T11:45:48.407Z,1028.99
2023-02-15T11:46:48.621Z,1028.92
2023-02-15T11:47:48.748Z,1028.91
2023-02-15T11:48:48.921Z,1028.92
2023-02-15T11:49:49.121Z,1028.87
2023-02-15T11:50:49.273Z,1028.83
2023-02-15T11:51:49.426Z,1028.89
2023-02-15T11:52:49.600Z,1028.85
2023-02-15T11:53:49.785Z,1028.88
2023-02-15T11:54:49.962Z,1028.85
2023-02-15T11:55:50.173Z,1028.85
2023-02-15T11:56:50.298Z,1028.88
2023-02-15T11:57:50.470Z,1028.87
2023-02-15T11:58:50.651Z,1028.87
2023-02-15T11:59:50.841Z,1028.87
2023-02-15T12:00:51.087Z,1028.84
2023-02-15T12:01:51.180Z,1028.87
2023-02-15T12:02:51.417Z,1028.87
2023-02-15T12:03:51.591Z,1028.86
2023-02-15T12:04:51.725Z,1028.88
2023-02-15T12:05:51.880Z,1028.90
2023-02-15T12:06:52.072Z,1028.85
2023-02-15T12:07:52.260Z,1028.78